sensor_id;sensor_type;location;lat;lon;timestamp;P1;durP1;ratioP1;P2;durP2;ratioP2
46689;SDS011;32423;45.398;10.874;2022-09-09T00:05:17;3.10;;;2.08;;
46689;SDS011;32423;45.398;10.874;2022-09-09T00:08:17;5.35;;;2.38;;
46689;SDS011;32423;45.398;10.874;2022-09-09T00:11:05;5.13;;;2.30;;
46689;SDS011;32423;45.398;10.874;2022-09-09T00:13:53;4.88;;;1.95;;
46689;SDS011;32423;45.398;10.874;2022-09-09T00:16:44;6.93;;;1.90;;
46689;SDS011;32423;45.398;10.874;2022-09-09T00:19:38;5.63;;;1.60;;
46689;SDS011;32423;45.398;10.874;2022-09-09T00:22:30;9.02;;;1.80;;
46689;SDS011;32423;45.398;10.874;2022-09-09T00:25:21;5.47;;;1.73;;
46689;SDS011;32423;45.398;10.874;2022-09-09T00:28:15;5.57;;;2.33;;
46689;SDS011;32423;45.398;10.874;2022-09-09T00:31:14;7.30;;;1.73;;
46689;SDS011;32423;45.398;10.874;2022-09-09T00:37:01;3.35;;;1.85;;
46689;SDS011;32423;45.398;10.874;2022-09-09T00:39:47;6.78;;;2.30;;
46689;SDS011;32423;45.398;10.874;2022-09-09T00:42:42;5.63;;;2.10;;
46689;SDS011;32423;45.398;10.874;2022-09-09T00:54:47;4.15;;;1.67;;
46689;SDS011;32423;45.398;10.874;2022-09-09T00:57:34;8.75;;;2.45;;
46689;SDS011;32423;45.398;10.874;2022-09-09T01:06:30;8.93;;;2.58;;
46689;SDS011;32423;45.398;10.874;2022-09-09T01:12:23;6.22;;;2.25;;
46689;SDS011;32423;45.398;10.874;2022-09-09T01:15:22;6.35;;;1.83;;
46689;SDS011;32423;45.398;10.874;2022-09-09T01:18:12;5.70;;;2.00;;
46689;SDS011;32423;45.398;10.874;2022-09-09T01:28:14;10.68;;;2.75;;
46689;SDS011;32423;45.398;10.874;2022-09-09T01:31:04;3.55;;;2.45;;
46689;SDS011;32423;45.398;10.874;2022-09-09T01:33:58;6.53;;;2.30;;
46689;SDS011;32423;45.398;10.874;2022-09-09T01:36:51;6.05;;;2.70;;
46689;SDS011;32423;45.398;10.874;2022-09-09T01:39:39;12.45;;;2.70;;
46689;SDS011;32423;45.398;10.874;2022-09-09T01:42:29;6.63;;;2.90;;
46689;SDS011;32423;45.398;10.874;2022-09-09T01:45:14;10.43;;;2.72;;
46689;SDS011;32423;45.398;10.874;2022-09-09T01:47:59;7.75;;;2.42;;
46689;SDS011;32423;45.398;10.874;2022-09-09T01:51:00;9.13;;;2.15;;
46689;SDS011;32423;45.398;10.874;2022-09-09T01:53:45;9.95;;;2.78;;
46689;SDS011;32423;45.398;10.874;2022-09-09T02:04:52;11.35;;;2.30;;
46689;SDS011;32423;45.398;10.874;2022-09-09T02:07:45;6.70;;;2.67;;
46689;SDS011;32423;45.398;10.874;2022-09-09T02:11:11;5.97;;;2.60;;
46689;SDS011;32423;45.398;10.874;2022-09-09T02:14:12;8.63;;;2.20;;
46689;SDS011;32423;45.398;10.874;2022-09-09T02:17:09;6.03;;;2.47;;
46689;SDS011;32423;45.398;10.874;2022-09-09T02:20:14;6.57;;;2.72;;
46689;SDS011;32423;45.398;10.874;2022-09-09T02:23:15;7.10;;;2.33;;
46689;SDS011;32423;45.398;10.874;2022-09-09T02:26:02;5.35;;;2.33;;
46689;SDS011;32423;45.398;10.874;2022-09-09T02:28:49;7.93;;;2.78;;
46689;SDS011;32423;45.398;10.874;2022-09-09T02:31:36;6.10;;;2.10;;
46689;SDS011;32423;45.398;10.874;2022-09-09T02:34:25;6.63;;;3.25;;
46689;SDS011;32423;45.398;10.874;2022-09-09T02:37:12;7.18;;;2.67;;
46689;SDS011;32423;45.398;10.874;2022-09-09T02:40:06;7.63;;;2.42;;
46689;SDS011;32423;45.398;10.874;2022-09-09T02:42:56;4.95;;;1.92;;
46689;SDS011;32423;45.398;10.874;2022-09-09T02:45:44;8.05;;;2.25;;
46689;SDS011;32423;45.398;10.874;2022-09-09T02:48:42;9.35;;;2.28;;
46689;SDS011;32423;45.398;10.874;2022-09-09T02:54:26;3.40;;;1.83;;
46689;SDS011;32423;45.398;10.874;2022-09-09T02:57:19;7.70;;;1.90;;
46689;SDS011;32423;45.398;10.874;2022-09-09T03:00:12;15.00;;;2.30;;
46689;SDS011;32423;45.398;10.874;2022-09-09T03:02:58;6.95;;;2.30;;
46689;SDS011;32423;45.398;10.874;2022-09-09T03:05:43;9.25;;;2.50;;
46689;SDS011;32423;45.398;10.874;2022-09-09T03:08:29;6.75;;;2.30;;
46689;SDS011;32423;45.398;10.874;2022-09-09T03:11:16;8.75;;;2.47;;
46689;SDS011;32423;45.398;10.874;2022-09-09T03:14:01;9.02;;;2.47;;
46689;SDS011;32423;45.398;10.874;2022-09-09T03:16:49;4.35;;;2.67;;
46689;SDS011;32423;45.398;10.874;2022-09-09T03:19:34;6.10;;;2.28;;
46689;SDS011;32423;45.398;10.874;2022-09-09T03:22:20;6.53;;;1.83;;
46689;SDS011;32423;45.398;10.874;2022-09-09T03:25:05;4.57;;;2.00;;
46689;SDS011;32423;45.398;10.874;2022-09-09T03:27:53;4.65;;;1.98;;
46689;SDS011;32423;45.398;10.874;2022-09-09T03:30:39;3.90;;;1.90;;
46689;SDS011;32423;45.398;10.874;2022-09-09T03:33:24;7.28;;;2.40;;
46689;SDS011;32423;45.398;10.874;2022-09-09T03:36:09;11.30;;;2.33;;
46689;SDS011;32423;45.398;10.874;2022-09-09T03:38:55;4.43;;;2.17;;
46689;SDS011;32423;45.398;10.874;2022-09-09T03:41:42;5.63;;;2.20;;
46689;SDS011;32423;45.398;10.874;2022-09-09T03:44:30;5.25;;;1.92;;
46689;SDS011;32423;45.398;10.874;2022-09-09T03:47:19;5.32;;;1.50;;
46689;SDS011;32423;45.398;10.874;2022-09-09T03:50:07;3.33;;;2.00;;
46689;SDS011;32423;45.398;10.874;2022-09-09T03:52:56;13.02;;;1.98;;
46689;SDS011;32423;45.398;10.874;2022-09-09T03:55:47;8.48;;;3.53;;
46689;SDS011;32423;45.398;10.874;2022-09-09T03:58:34;6.90;;;2.38;;
46689;SDS011;32423;45.398;10.874;2022-09-09T04:01:26;4.50;;;2.00;;
46689;SDS011;32423;45.398;10.874;2022-09-09T04:04:11;5.07;;;1.88;;
46689;SDS011;32423;45.398;10.874;2022-09-09T04:06:56;4.97;;;1.98;;
46689;SDS011;32423;45.398;10.874;2022-09-09T04:09:41;9.93;;;1.92;;
46689;SDS011;32423;45.398;10.874;2022-09-09T04:12:26;7.68;;;2.38;;
46689;SDS011;32423;45.398;10.874;2022-09-09T04:17:57;5.50;;;1.92;;
46689;SDS011;32423;45.398;10.874;2022-09-09T04:20:42;6.28;;;1.73;;
46689;SDS011;32423;45.398;10.874;2022-09-09T04:23:28;5.50;;;1.77;;
46689;SDS011;32423;45.398;10.874;2022-09-09T04:26:15;7.05;;;1.77;;
46689;SDS011;32423;45.398;10.874;2022-09-09T04:29:03;4.85;;;1.95;;
46689;SDS011;32423;45.398;10.874;2022-09-09T04:31:48;5.60;;;1.90;;
46689;SDS011;32423;45.398;10.874;2022-09-09T04:37:17;5.13;;;2.00;;
46689;SDS011;32423;45.398;10.874;2022-09-09T04:40:02;8.57;;;3.05;;
46689;SDS011;32423;45.398;10.874;2022-09-09T04:42:49;9.55;;;2.10;;
46689;SDS011;32423;45.398;10.874;2022-09-09T04:45:34;11.90;;;2.40;;
46689;SDS011;32423;45.398;10.874;2022-09-09T04:48:19;3.78;;;2.30;;
46689;SDS011;32423;45.398;10.874;2022-09-09T04:51:06;10.77;;;2.33;;
46689;SDS011;32423;45.398;10.874;2022-09-09T04:53:54;5.22;;;2.17;;
46689;SDS011;32423;45.398;10.874;2022-09-09T04:56:50;15.15;;;3.03;;
46689;SDS011;32423;45.398;10.874;2022-09-09T04:59:35;7.13;;;2.45;;
46689;SDS011;32423;45.398;10.874;2022-09-09T05:02:20;11.05;;;2.70;;
46689;SDS011;32423;45.398;10.874;2022-09-09T05:07:51;7.32;;;2.17;;
46689;SDS011;32423;45.398;10.874;2022-09-09T05:10:36;6.45;;;2.38;;
46689;SDS011;32423;45.398;10.874;2022-09-09T05:13:23;13.45;;;3.20;;
46689;SDS011;32423;45.398;10.874;2022-09-09T05:16:07;6.20;;;2.58;;
46689;SDS011;32423;45.398;10.874;2022-09-09T05:18:56;8.82;;;2.78;;
46689;SDS011;32423;45.398;10.874;2022-09-09T05:21:41;11.18;;;2.75;;
46689;SDS011;32423;45.398;10.874;2022-09-09T05:24:26;9.43;;;3.22;;
46689;SDS011;32423;45.398;10.874;2022-09-09T05:27:14;8.52;;;3.00;;
46689;SDS011;32423;45.398;10.874;2022-09-09T05:29:59;7.38;;;2.97;;
46689;SDS011;32423;45.398;10.874;2022-09-09T05:32:45;10.63;;;3.75;;
46689;SDS011;32423;45.398;10.874;2022-09-09T05:35:32;7.10;;;2.67;;
46689;SDS011;32423;45.398;10.874;2022-09-09T05:38:18;7.07;;;2.75;;
46689;SDS011;32423;45.398;10.874;2022-09-09T05:41:03;10.10;;;3.28;;
46689;SDS011;32423;45.398;10.874;2022-09-09T05:43:48;7.63;;;2.55;;
46689;SDS011;32423;45.398;10.874;2022-09-09T05:46:34;8.77;;;2.50;;
46689;SDS011;32423;45.398;10.874;2022-09-09T05:49:20;3.85;;;2.40;;
46689;SDS011;32423;45.398;10.874;2022-09-09T05:52:06;8.35;;;2.63;;
46689;SDS011;32423;45.398;10.874;2022-09-09T05:57:35;7.60;;;2.25;;
46689;SDS011;32423;45.398;10.874;2022-09-09T06:00:21;11.35;;;2.83;;
46689;SDS011;32423;45.398;10.874;2022-09-09T06:03:06;9.13;;;2.83;;
46689;SDS011;32423;45.398;10.874;2022-09-09T06:05:56;14.25;;;2.65;;
46689;SDS011;32423;45.398;10.874;2022-09-09T06:08:43;6.85;;;2.67;;
46689;SDS011;32423;45.398;10.874;2022-09-09T06:11:30;12.55;;;2.50;;
46689;SDS011;32423;45.398;10.874;2022-09-09T06:14:17;7.00;;;2.75;;
46689;SDS011;32423;45.398;10.874;2022-09-09T06:17:09;17.67;;;3.00;;
46689;SDS011;32423;45.398;10.874;2022-09-09T06:19:55;12.02;;;2.60;;
46689;SDS011;32423;45.398;10.874;2022-09-09T06:22:40;22.35;;;2.65;;
46689;SDS011;32423;45.398;10.874;2022-09-09T06:25:25;12.73;;;4.13;;
46689;SDS011;32423;45.398;10.874;2022-09-09T06:28:10;12.60;;;3.33;;
46689;SDS011;32423;45.398;10.874;2022-09-09T06:31:03;10.95;;;3.13;;
46689;SDS011;32423;45.398;10.874;2022-09-09T06:33:52;12.18;;;3.05;;
46689;SDS011;32423;45.398;10.874;2022-09-09T06:36:41;7.13;;;3.28;;
46689;SDS011;32423;45.398;10.874;2022-09-09T06:39:26;11.23;;;3.95;;
46689;SDS011;32423;45.398;10.874;2022-09-09T06:45:07;17.85;;;3.08;;
46689;SDS011;32423;45.398;10.874;2022-09-09T06:48:03;11.05;;;3.25;;
46689;SDS011;32423;45.398;10.874;2022-09-09T06:50:48;13.88;;;3.33;;
46689;SDS011;32423;45.398;10.874;2022-09-09T06:53:35;11.65;;;2.50;;
46689;SDS011;32423;45.398;10.874;2022-09-09T06:56:30;15.65;;;4.28;;
46689;SDS011;32423;45.398;10.874;2022-09-09T06:59:16;15.05;;;4.28;;
46689;SDS011;32423;45.398;10.874;2022-09-09T07:02:02;18.35;;;4.57;;
46689;SDS011;32423;45.398;10.874;2022-09-09T07:04:48;11.93;;;2.83;;
46689;SDS011;32423;45.398;10.874;2022-09-09T07:07:35;8.23;;;2.20;;
46689;SDS011;32423;45.398;10.874;2022-09-09T07:10:21;7.88;;;1.90;;
46689;SDS011;32423;45.398;10.874;2022-09-09T07:13:06;9.40;;;2.20;;
46689;SDS011;32423;45.398;10.874;2022-09-09T07:15:52;9.45;;;2.00;;
46689;SDS011;32423;45.398;10.874;2022-09-09T07:18:37;9.93;;;1.77;;
46689;SDS011;32423;45.398;10.874;2022-09-09T07:21:22;8.18;;;1.90;;
46689;SDS011;32423;45.398;10.874;2022-09-09T07:24:07;7.70;;;1.92;;
46689;SDS011;32423;45.398;10.874;2022-09-09T07:26:55;7.20;;;1.70;;
46689;SDS011;32423;45.398;10.874;2022-09-09T07:29:39;9.00;;;2.05;;
46689;SDS011;32423;45.398;10.874;2022-09-09T07:32:26;17.33;;;2.35;;
46689;SDS011;32423;45.398;10.874;2022-09-09T07:35:11;20.80;;;2.00;;
46689;SDS011;32423;45.398;10.874;2022-09-09T07:37:56;4.13;;;1.85;;
46689;SDS011;32423;45.398;10.874;2022-09-09T07:40:41;6.22;;;1.33;;
46689;SDS011;32423;45.398;10.874;2022-09-09T07:43:26;19.58;;;2.22;;
46689;SDS011;32423;45.398;10.874;2022-09-09T07:46:12;5.80;;;1.17;;
46689;SDS011;32423;45.398;10.874;2022-09-09T07:48:57;8.00;;;1.38;;
46689;SDS011;32423;45.398;10.874;2022-09-09T07:51:46;31.45;;;1.92;;
46689;SDS011;32423;45.398;10.874;2022-09-09T07:54:33;5.82;;;1.20;;
46689;SDS011;32423;45.398;10.874;2022-09-09T07:57:20;9.15;;;2.75;;
46689;SDS011;32423;45.398;10.874;2022-09-09T08:00:06;9.57;;;1.33;;
46689;SDS011;32423;45.398;10.874;2022-09-09T08:02:59;11.43;;;1.42;;
46689;SDS011;32423;45.398;10.874;2022-09-09T08:05:46;7.57;;;1.85;;
46689;SDS011;32423;45.398;10.874;2022-09-09T08:08:31;10.43;;;1.40;;
46689;SDS011;32423;45.398;10.874;2022-09-09T08:11:16;8.93;;;1.77;;
46689;SDS011;32423;45.398;10.874;2022-09-09T08:14:02;10.73;;;1.98;;
46689;SDS011;32423;45.398;10.874;2022-09-09T08:16:48;10.35;;;1.30;;
46689;SDS011;32423;45.398;10.874;2022-09-09T08:19:37;7.25;;;1.65;;
46689;SDS011;32423;45.398;10.874;2022-09-09T08:22:27;5.88;;;2.10;;
46689;SDS011;32423;45.398;10.874;2022-09-09T08:25:13;8.10;;;1.30;;
46689;SDS011;32423;45.398;10.874;2022-09-09T08:27:59;4.30;;;1.23;;
46689;SDS011;32423;45.398;10.874;2022-09-09T08:30:44;11.10;;;1.35;;
46689;SDS011;32423;45.398;10.874;2022-09-09T08:33:29;5.60;;;1.33;;
46689;SDS011;32423;45.398;10.874;2022-09-09T08:36:15;7.80;;;1.38;;
46689;SDS011;32423;45.398;10.874;2022-09-09T08:39:03;5.03;;;1.55;;
46689;SDS011;32423;45.398;10.874;2022-09-09T08:47:53;6.97;;;1.95;;
46689;SDS011;32423;45.398;10.874;2022-09-09T08:50:57;6.53;;;1.60;;
46689;SDS011;32423;45.398;10.874;2022-09-09T08:53:48;5.63;;;1.25;;
46689;SDS011;32423;45.398;10.874;2022-09-09T08:56:35;4.47;;;1.48;;
46689;SDS011;32423;45.398;10.874;2022-09-09T08:59:21;7.82;;;1.70;;
46689;SDS011;32423;45.398;10.874;2022-09-09T09:02:14;6.15;;;1.58;;
46689;SDS011;32423;45.398;10.874;2022-09-09T09:08:15;6.13;;;0.90;;
46689;SDS011;32423;45.398;10.874;2022-09-09T09:11:11;25.73;;;2.83;;
46689;SDS011;32423;45.398;10.874;2022-09-09T09:13:58;10.50;;;1.58;;
46689;SDS011;32423;45.398;10.874;2022-09-09T09:16:53;6.85;;;1.85;;
46689;SDS011;32423;45.398;10.874;2022-09-09T09:19:38;10.57;;;1.98;;
46689;SDS011;32423;45.398;10.874;2022-09-09T09:22:41;8.00;;;2.03;;
46689;SDS011;32423;45.398;10.874;2022-09-09T09:25:38;8.07;;;2.63;;
46689;SDS011;32423;45.398;10.874;2022-09-09T09:28:27;9.85;;;1.55;;
46689;SDS011;32423;45.398;10.874;2022-09-09T09:31:20;6.40;;;1.35;;
46689;SDS011;32423;45.398;10.874;2022-09-09T09:34:07;16.60;;;1.67;;
46689;SDS011;32423;45.398;10.874;2022-09-09T09:36:54;15.82;;;2.22;;
46689;SDS011;32423;45.398;10.874;2022-09-09T09:39:48;9.98;;;2.33;;
46689;SDS011;32423;45.398;10.874;2022-09-09T09:42:33;12.38;;;1.48;;
46689;SDS011;32423;45.398;10.874;2022-09-09T09:48:26;10.30;;;1.10;;
46689;SDS011;32423;45.398;10.874;2022-09-09T09:51:13;26.63;;;1.83;;
46689;SDS011;32423;45.398;10.874;2022-09-09T09:54:09;13.68;;;1.50;;
46689;SDS011;32423;45.398;10.874;2022-09-09T10:26:14;12.40;;;2.30;;
46689;SDS011;32423;45.398;10.874;2022-09-09T10:32:26;6.85;;;1.85;;
46689;SDS011;32423;45.398;10.874;2022-09-09T10:38:21;9.50;;;1.58;;
46689;SDS011;32423;45.398;10.874;2022-09-09T10:41:50;6.65;;;1.38;;
46689;SDS011;32423;45.398;10.874;2022-09-09T10:50:50;9.30;;;1.40;;
46689;SDS011;32423;45.398;10.874;2022-09-09T10:56:48;192.93;;;35.83;;
46689;SDS011;32423;45.398;10.874;2022-09-09T10:59:42;275.85;;;54.03;;
46689;SDS011;32423;45.398;10.874;2022-09-09T11:02:33;76.38;;;16.98;;
46689;SDS011;32423;45.398;10.874;2022-09-09T11:05:19;60.33;;;11.25;;
46689;SDS011;32423;45.398;10.874;2022-09-09T11:08:20;62.22;;;10.57;;
46689;SDS011;32423;45.398;10.874;2022-09-09T11:14:22;69.10;;;12.20;;
46689;SDS011;32423;45.398;10.874;2022-09-09T11:17:18;10.82;;;3.30;;
46689;SDS011;32423;45.398;10.874;2022-09-09T11:20:06;34.28;;;6.50;;
46689;SDS011;32423;45.398;10.874;2022-09-09T11:23:09;26.20;;;4.60;;
46689;SDS011;32423;45.398;10.874;2022-09-09T11:26:00;15.20;;;3.45;;
46689;SDS011;32423;45.398;10.874;2022-09-09T11:41:13;3.90;;;1.25;;
46689;SDS011;32423;45.398;10.874;2022-09-09T11:43:59;22.65;;;4.53;;
46689;SDS011;32423;45.398;10.874;2022-09-09T11:49:42;32.08;;;5.75;;
46689;SDS011;32423;45.398;10.874;2022-09-09T12:00:58;7.53;;;1.70;;
46689;SDS011;32423;45.398;10.874;2022-09-09T12:03:45;6.35;;;1.45;;
46689;SDS011;32423;45.398;10.874;2022-09-09T12:06:33;5.25;;;1.85;;
46689;SDS011;32423;45.398;10.874;2022-09-09T12:14:58;6.00;;;1.05;;
46689;SDS011;32423;45.398;10.874;2022-09-09T12:17:47;3.08;;;1.00;;
46689;SDS011;32423;45.398;10.874;2022-09-09T12:20:37;1.92;;;0.68;;
46689;SDS011;32423;45.398;10.874;2022-09-09T12:29:24;1.75;;;0.60;;
46689;SDS011;32423;45.398;10.874;2022-09-09T12:32:19;2.38;;;0.68;;
46689;SDS011;32423;45.398;10.874;2022-09-09T12:35:13;2.50;;;0.70;;
46689;SDS011;32423;45.398;10.874;2022-09-09T12:38:06;2.33;;;0.70;;
46689;SDS011;32423;45.398;10.874;2022-09-09T12:41:03;4.60;;;0.70;;
46689;SDS011;32423;45.398;10.874;2022-09-09T12:43:48;2.17;;;0.60;;
46689;SDS011;32423;45.398;10.874;2022-09-09T12:46:35;6.50;;;0.70;;
46689;SDS011;32423;45.398;10.874;2022-09-09T12:49:33;3.60;;;0.60;;
46689;SDS011;32423;45.398;10.874;2022-09-09T12:52:23;5.82;;;0.70;;
46689;SDS011;32423;45.398;10.874;2022-09-09T12:55:15;2.72;;;0.60;;
46689;SDS011;32423;45.398;10.874;2022-09-09T12:58:03;1.38;;;0.57;;
46689;SDS011;32423;45.398;10.874;2022-09-09T13:00:54;1.40;;;0.55;;
46689;SDS011;32423;45.398;10.874;2022-09-09T13:03:43;3.47;;;0.95;;
46689;SDS011;32423;45.398;10.874;2022-09-09T13:06:30;3.00;;;0.70;;
46689;SDS011;32423;45.398;10.874;2022-09-09T13:09:16;1.50;;;0.80;;
46689;SDS011;32423;45.398;10.874;2022-09-09T13:12:01;2.55;;;0.80;;
46689;SDS011;32423;45.398;10.874;2022-09-09T13:14:52;1.83;;;0.73;;
46689;SDS011;32423;45.398;10.874;2022-09-09T13:17:39;2.50;;;0.60;;
46689;SDS011;32423;45.398;10.874;2022-09-09T13:20:25;3.28;;;0.60;;
46689;SDS011;32423;45.398;10.874;2022-09-09T13:23:10;2.15;;;0.80;;
46689;SDS011;32423;45.398;10.874;2022-09-09T13:25:57;5.53;;;0.95;;
46689;SDS011;32423;45.398;10.874;2022-09-09T13:28:44;2.33;;;0.80;;
46689;SDS011;32423;45.398;10.874;2022-09-09T13:31:33;1.77;;;0.90;;
46689;SDS011;32423;45.398;10.874;2022-09-09T13:34:26;4.20;;;0.90;;
46689;SDS011;32423;45.398;10.874;2022-09-09T13:37:20;2.05;;;0.65;;
46689;SDS011;32423;45.398;10.874;2022-09-09T13:40:23;3.85;;;0.70;;
46689;SDS011;32423;45.398;10.874;2022-09-09T13:43:14;3.28;;;0.70;;
46689;SDS011;32423;45.398;10.874;2022-09-09T13:52:01;3.65;;;0.70;;
46689;SDS011;32423;45.398;10.874;2022-09-09T13:54:51;4.47;;;0.63;;
46689;SDS011;32423;45.398;10.874;2022-09-09T13:57:38;2.92;;;0.65;;
46689;SDS011;32423;45.398;10.874;2022-09-09T14:00:23;3.38;;;1.00;;
46689;SDS011;32423;45.398;10.874;2022-09-09T14:03:08;1.92;;;0.73;;
46689;SDS011;32423;45.398;10.874;2022-09-09T14:05:52;1.83;;;0.63;;
46689;SDS011;32423;45.398;10.874;2022-09-09T14:08:38;1.73;;;0.70;;
46689;SDS011;32423;45.398;10.874;2022-09-09T14:11:24;3.33;;;0.65;;
46689;SDS011;32423;45.398;10.874;2022-09-09T14:14:09;1.90;;;0.88;;
46689;SDS011;32423;45.398;10.874;2022-09-09T14:16:54;0.85;;;0.60;;
46689;SDS011;32423;45.398;10.874;2022-09-09T14:19:38;0.77;;;0.50;;
46689;SDS011;32423;45.398;10.874;2022-09-09T14:22:23;3.35;;;1.02;;
46689;SDS011;32423;45.398;10.874;2022-09-09T14:25:09;4.82;;;0.80;;
46689;SDS011;32423;45.398;10.874;2022-09-09T14:27:55;2.92;;;0.70;;
46689;SDS011;32423;45.398;10.874;2022-09-09T14:30:41;1.90;;;0.70;;
46689;SDS011;32423;45.398;10.874;2022-09-09T14:33:28;2.47;;;0.98;;
46689;SDS011;32423;45.398;10.874;2022-09-09T14:36:15;2.78;;;0.88;;
46689;SDS011;32423;45.398;10.874;2022-09-09T14:39:00;3.20;;;0.52;;
46689;SDS011;32423;45.398;10.874;2022-09-09T14:41:45;2.80;;;0.57;;
46689;SDS011;32423;45.398;10.874;2022-09-09T14:44:30;2.45;;;0.88;;
46689;SDS011;32423;45.398;10.874;2022-09-09T14:47:16;4.80;;;0.98;;
46689;SDS011;32423;45.398;10.874;2022-09-09T14:50:01;2.97;;;0.60;;
46689;SDS011;32423;45.398;10.874;2022-09-09T14:52:48;1.15;;;0.70;;
46689;SDS011;32423;45.398;10.874;2022-09-09T14:55:35;2.65;;;1.00;;
46689;SDS011;32423;45.398;10.874;2022-09-09T14:58:20;1.80;;;0.47;;
46689;SDS011;32423;45.398;10.874;2022-09-09T15:01:05;3.90;;;0.70;;
46689;SDS011;32423;45.398;10.874;2022-09-09T15:03:56;2.83;;;0.68;;
46689;SDS011;32423;45.398;10.874;2022-09-09T15:06:43;4.88;;;0.65;;
46689;SDS011;32423;45.398;10.874;2022-09-09T15:09:32;2.20;;;1.42;;
46689;SDS011;32423;45.398;10.874;2022-09-09T15:12:17;2.92;;;0.50;;
46689;SDS011;32423;45.398;10.874;2022-09-09T15:15:03;3.08;;;0.75;;
46689;SDS011;32423;45.398;10.874;2022-09-09T15:17:49;3.33;;;1.33;;
46689;SDS011;32423;45.398;10.874;2022-09-09T15:20:33;3.90;;;0.70;;
46689;SDS011;32423;45.398;10.874;2022-09-09T15:23:21;3.25;;;0.60;;
46689;SDS011;32423;45.398;10.874;2022-09-09T15:26:06;3.83;;;1.45;;
46689;SDS011;32423;45.398;10.874;2022-09-09T15:28:51;7.03;;;0.60;;
46689;SDS011;32423;45.398;10.874;2022-09-09T15:31:36;2.72;;;0.85;;
46689;SDS011;32423;45.398;10.874;2022-09-09T15:34:21;5.72;;;0.75;;
46689;SDS011;32423;45.398;10.874;2022-09-09T15:37:06;1.85;;;0.60;;
46689;SDS011;32423;45.398;10.874;2022-09-09T15:39:54;3.00;;;0.80;;
46689;SDS011;32423;45.398;10.874;2022-09-09T15:42:39;3.42;;;0.60;;
46689;SDS011;32423;45.398;10.874;2022-09-09T15:45:24;1.52;;;0.77;;
46689;SDS011;32423;45.398;10.874;2022-09-09T15:48:09;1.88;;;0.60;;
46689;SDS011;32423;45.398;10.874;2022-09-09T15:51:03;3.60;;;1.25;;
46689;SDS011;32423;45.398;10.874;2022-09-09T15:53:51;1.52;;;0.73;;
46689;SDS011;32423;45.398;10.874;2022-09-09T15:56:39;3.80;;;0.90;;
46689;SDS011;32423;45.398;10.874;2022-09-09T15:59:26;3.75;;;0.60;;
46689;SDS011;32423;45.398;10.874;2022-09-09T16:02:12;3.00;;;0.60;;
46689;SDS011;32423;45.398;10.874;2022-09-09T16:04:56;5.80;;;1.02;;
46689;SDS011;32423;45.398;10.874;2022-09-09T16:07:47;2.30;;;0.88;;
46689;SDS011;32423;45.398;10.874;2022-09-09T16:10:32;3.35;;;1.20;;
46689;SDS011;32423;45.398;10.874;2022-09-09T16:13:16;1.85;;;0.60;;
46689;SDS011;32423;45.398;10.874;2022-09-09T16:16:02;3.15;;;0.82;;
46689;SDS011;32423;45.398;10.874;2022-09-09T16:18:53;2.45;;;0.50;;
46689;SDS011;32423;45.398;10.874;2022-09-09T16:21:43;1.48;;;0.50;;
46689;SDS011;32423;45.398;10.874;2022-09-09T16:24:31;3.47;;;0.63;;
46689;SDS011;32423;45.398;10.874;2022-09-09T16:27:18;1.55;;;0.98;;
46689;SDS011;32423;45.398;10.874;2022-09-09T16:30:03;6.72;;;0.90;;
46689;SDS011;32423;45.398;10.874;2022-09-09T16:32:48;4.85;;;0.70;;
46689;SDS011;32423;45.398;10.874;2022-09-09T16:35:36;1.83;;;0.73;;
46689;SDS011;32423;45.398;10.874;2022-09-09T16:38:21;0.93;;;0.65;;
46689;SDS011;32423;45.398;10.874;2022-09-09T16:41:06;2.92;;;0.80;;
46689;SDS011;32423;45.398;10.874;2022-09-09T16:43:54;3.30;;;0.90;;
46689;SDS011;32423;45.398;10.874;2022-09-09T16:46:42;2.80;;;0.80;;
46689;SDS011;32423;45.398;10.874;2022-09-09T16:49:27;1.35;;;0.68;;
46689;SDS011;32423;45.398;10.874;2022-09-09T16:52:14;1.35;;;0.57;;
46689;SDS011;32423;45.398;10.874;2022-09-09T16:54:59;2.60;;;0.50;;
46689;SDS011;32423;45.398;10.874;2022-09-09T16:57:47;1.40;;;0.73;;
46689;SDS011;32423;45.398;10.874;2022-09-09T17:00:34;4.35;;;0.77;;
46689;SDS011;32423;45.398;10.874;2022-09-09T17:03:19;7.63;;;0.70;;
46689;SDS011;32423;45.398;10.874;2022-09-09T17:06:09;2.85;;;0.55;;
46689;SDS011;32423;45.398;10.874;2022-09-09T17:08:56;1.30;;;0.82;;
46689;SDS011;32423;45.398;10.874;2022-09-09T17:11:50;3.15;;;0.70;;
46689;SDS011;32423;45.398;10.874;2022-09-09T17:14:36;3.60;;;0.90;;
46689;SDS011;32423;45.398;10.874;2022-09-09T17:17:22;2.25;;;0.68;;
46689;SDS011;32423;45.398;10.874;2022-09-09T17:20:07;2.38;;;0.85;;
46689;SDS011;32423;45.398;10.874;2022-09-09T17:22:53;2.33;;;0.75;;
46689;SDS011;32423;45.398;10.874;2022-09-09T17:25:37;4.00;;;1.15;;
46689;SDS011;32423;45.398;10.874;2022-09-09T17:28:22;3.60;;;0.75;;
46689;SDS011;32423;45.398;10.874;2022-09-09T17:31:10;5.38;;;0.90;;
46689;SDS011;32423;45.398;10.874;2022-09-09T17:33:57;2.30;;;0.85;;
46689;SDS011;32423;45.398;10.874;2022-09-09T17:36:43;2.45;;;0.85;;
46689;SDS011;32423;45.398;10.874;2022-09-09T17:39:28;2.70;;;0.80;;
46689;SDS011;32423;45.398;10.874;2022-09-09T17:42:12;3.97;;;0.80;;
46689;SDS011;32423;45.398;10.874;2022-09-09T17:44:58;3.17;;;1.02;;
46689;SDS011;32423;45.398;10.874;2022-09-09T17:47:43;3.10;;;0.85;;
46689;SDS011;32423;45.398;10.874;2022-09-09T17:50:28;2.80;;;1.17;;
46689;SDS011;32423;45.398;10.874;2022-09-09T17:53:13;4.90;;;1.75;;
46689;SDS011;32423;45.398;10.874;2022-09-09T17:56:04;4.07;;;0.60;;
46689;SDS011;32423;45.398;10.874;2022-09-09T17:58:51;9.10;;;0.90;;
46689;SDS011;32423;45.398;10.874;2022-09-09T18:01:38;5.32;;;0.93;;
46689;SDS011;32423;45.398;10.874;2022-09-09T18:04:26;1.80;;;0.70;;
46689;SDS011;32423;45.398;10.874;2022-09-09T18:07:11;2.65;;;0.93;;
46689;SDS011;32423;45.398;10.874;2022-09-09T18:09:57;2.50;;;1.13;;
46689;SDS011;32423;45.398;10.874;2022-09-09T18:12:41;2.60;;;0.90;;
46689;SDS011;32423;45.398;10.874;2022-09-09T18:15:26;3.00;;;1.20;;
46689;SDS011;32423;45.398;10.874;2022-09-09T18:18:10;2.55;;;0.90;;
46689;SDS011;32423;45.398;10.874;2022-09-09T18:21:00;4.10;;;0.88;;
46689;SDS011;32423;45.398;10.874;2022-09-09T18:23:47;9.18;;;0.98;;
46689;SDS011;32423;45.398;10.874;2022-09-09T18:26:33;3.05;;;0.85;;
46689;SDS011;32423;45.398;10.874;2022-09-09T18:29:19;1.23;;;0.63;;
46689;SDS011;32423;45.398;10.874;2022-09-09T18:32:08;8.27;;;1.48;;
46689;SDS011;32423;45.398;10.874;2022-09-09T18:34:52;4.13;;;0.70;;
46689;SDS011;32423;45.398;10.874;2022-09-09T18:37:39;5.55;;;0.98;;
46689;SDS011;32423;45.398;10.874;2022-09-09T18:40:24;6.03;;;1.83;;
46689;SDS011;32423;45.398;10.874;2022-09-09T18:43:08;1.77;;;0.90;;
46689;SDS011;32423;45.398;10.874;2022-09-09T18:45:57;1.75;;;0.90;;
46689;SDS011;32423;45.398;10.874;2022-09-09T18:48:48;1.90;;;0.70;;
46689;SDS011;32423;45.398;10.874;2022-09-09T18:51:34;3.38;;;0.80;;
46689;SDS011;32423;45.398;10.874;2022-09-09T18:54:24;3.83;;;0.70;;
46689;SDS011;32423;45.398;10.874;2022-09-09T18:57:19;3.50;;;1.10;;
46689;SDS011;32423;45.398;10.874;2022-09-09T19:00:05;3.40;;;0.82;;
46689;SDS011;32423;45.398;10.874;2022-09-09T19:02:51;8.45;;;0.90;;
46689;SDS011;32423;45.398;10.874;2022-09-09T19:05:36;3.30;;;0.82;;
46689;SDS011;32423;45.398;10.874;2022-09-09T19:08:21;11.95;;;0.98;;
46689;SDS011;32423;45.398;10.874;2022-09-09T19:11:06;2.58;;;0.93;;
46689;SDS011;32423;45.398;10.874;2022-09-09T19:16:40;3.90;;;1.30;;